Flight Track Log - Related Links

Times and Time Zones

All times are in EDT time to prevent confusion due to time zone crossing. See the THY1977 flight status page for this flight to view local times or setup timezone preferences in your user account.

Time Position Orientation Groundspeed Altitude Reporting Facility
EDT Latitude Longitude Course Direction KTS MPH feet Rate Location/Type
Tue 06:57:00 AM 41.4854 28.0050 310° West  Level Estimated
Tue 06:58:00 AM 41.5575 27.8873 309° West  Level Estimated
Tue 06:59:00 AM 41.6296 27.7694 309° West  Level Estimated
Tue 07:00:00 AM 41.7015 27.6513 309° West  Level Estimated
Tue 07:01:00 AM 41.7733 27.5329 309° West  Level Estimated
Tue 07:02:00 AM 41.8450 27.4142 309° West  Level Estimated
Tue 07:03:00 AM 41.9165 27.2952 309° West  Level Estimated
Tue 07:04:00 AM 41.9880 27.1760 309° West  Level Estimated
Tue 07:05:00 AM 42.0593 27.0565 309° West  Level Estimated
Tue 07:06:00 AM 42.1305 26.9368 309° West  Level Estimated
Tue 07:07:00 AM 42.2015 26.8167 309° West  Level Estimated
Tue 07:08:00 AM 42.2725 26.6964 309° West  Level Estimated
Tue 07:09:00 AM 42.3433 26.5759 308° West  Level Estimated
Tue 07:10:00 AM 42.4140 26.4550 308° West  Level Estimated
Tue 07:11:00 AM 42.4845 26.3339 308° West  Level Estimated
Tue 07:12:00 AM 42.5550 26.2125 308° West  Level Estimated
Tue 07:13:00 AM 42.6253 26.0909 308° West  Level Estimated
Tue 07:14:00 AM 42.6954 25.9689 308° West  Level Estimated
Tue 07:15:00 AM 42.7655 25.8467 308° West  Level Estimated
Tue 07:16:00 AM 42.8354 25.7242 308° West  Level Estimated
Tue 07:17:00 AM 42.9052 25.6015 308° West  Level Estimated
Tue 07:18:00 AM 42.9748 25.4784 308° West  Level Estimated
Tue 07:19:00 AM 43.0443 25.3551 308° West  Level Estimated
Tue 07:20:00 AM 43.1137 25.2315 308° West  Level Estimated
Tue 07:21:00 AM 43.1830 25.1076 308° West  Level Estimated
Tue 07:22:00 AM 43.2521 24.9835 307° West  Level Estimated
Tue 07:23:00 AM 43.3211 24.8590 307° West  Level Estimated
Tue 07:24:00 AM 43.3899 24.7343 307° West  Level Estimated
Tue 07:25:00 AM 43.4586 24.6093 307° West  Level Estimated
Tue 07:26:00 AM 43.5272 24.4840 307° West  Level Estimated
Tue 07:27:00 AM 43.5956 24.3584 307° West  Level Estimated
Tue 07:28:00 AM 43.6640 24.2326 307° West  Level Estimated
Tue 07:29:00 AM 43.7321 24.1064 307° West  Level Estimated
Tue 07:30:00 AM 43.8001 23.9800 307° West  Level Estimated
Tue 07:31:00 AM 43.8680 23.8533 307° West  Level Estimated
Tue 07:32:00 AM 43.9358 23.7262 307° West  Level Estimated
Tue 07:33:00 AM 44.0034 23.5989 306° West  Level Estimated
Tue 07:34:00 AM 44.0708 23.4713 306° West  Level Estimated
Tue 07:35:00 AM 44.1381 23.3435 306° West  Level Estimated
Tue 07:36:00 AM 44.2053 23.2153 306° West  Level Estimated
Tue 07:37:00 AM 44.2724 23.0868 306° West  Level Estimated
Tue 07:38:00 AM 44.3392 22.9580 306° West  Level Estimated
Tue 07:39:00 AM 44.4060 22.8290 306° West  Level Estimated
Tue 07:40:00 AM 44.4726 22.6996 306° West  Level Estimated
Tue 07:41:00 AM 44.5390 22.5700 306° West  Level Estimated
Tue 07:42:00 AM 44.6053 22.4401 306° West  Level Estimated
Tue 07:43:00 AM 44.6715 22.3098 306° West  Level Estimated
Tue 07:44:00 AM 44.7375 22.1793 305° West  Level Estimated
Tue 07:45:00 AM 44.8034 22.0485 305° West  Level Estimated
Tue 07:46:00 AM 44.8691 21.9173 305° West  Level Estimated
Tue 07:47:00 AM 44.9346 21.7859 305° West  Level Estimated
Tue 07:48:00 AM 45.0000 21.6542 305° West  Level Estimated
Tue 07:49:00 AM 45.0653 21.5221 305° West  Level Estimated
Tue 07:50:00 AM 45.1304 21.3898 305° West  Level Estimated
Tue 07:51:00 AM 45.1954 21.2572 305° West  Level Estimated
Tue 07:52:00 AM 45.2601 21.1242 305° West  Level Estimated
Tue 07:53:00 AM 45.3248 20.9910 305° West  Level Estimated
Tue 07:54:00 AM 45.3893 20.8574 305° West  Level Estimated
Tue 07:55:00 AM 45.4536 20.7236 304° West  Level Estimated
Tue 07:56:00 AM 45.5178 20.5894 304° West  Level Estimated
Tue 07:57:00 AM 45.5818 20.4550 304° West  Level Estimated
Tue 07:58:00 AM 45.6456 20.3202 304° West  Level Estimated
Tue 07:59:00 AM 45.7094 20.1851 304° West  Level Estimated
Tue 08:00:00 AM 45.7729 20.0497 304° West  Level Estimated
Tue 08:01:00 AM 45.8363 19.9140 304° West  Level Estimated
Tue 08:02:00 AM 45.8995 19.7780 304° West  Level Estimated
Tue 08:03:00 AM 45.9625 19.6417 304° West  Level Estimated
Tue 08:04:00 AM 46.0254 19.5051 304° West  Level Estimated
Tue 08:05:00 AM 46.0882 19.3682 303° West  Level Estimated
Tue 08:06:00 AM 46.1507 19.2309 303° West  Level Estimated
Tue 08:07:00 AM 46.2131 19.0934 303° West  Level Estimated
Tue 08:08:00 AM 46.2754 18.9555 303° West  Level Estimated
Tue 08:09:00 AM 46.3374 18.8173 303° West  Level Estimated
Tue 08:10:00 AM 46.3993 18.6789 303° West  Level Estimated
Tue 08:11:00 AM 46.4611 18.5400 303° West  Level Estimated
Tue 08:12:00 AM 46.5227 18.4009 303° West  Level Estimated
Tue 08:13:00 AM 46.5841 18.2615 303° West  Level Estimated
Tue 08:14:00 AM 46.6453 18.1217 303° West  Level Estimated
Tue 08:15:00 AM 46.7063 17.9816 302° West  Level Estimated
Tue 08:16:00 AM 46.7672 17.8413 302° West  Level Estimated
Tue 08:17:00 AM 46.8279 17.7006 302° West  Level Estimated
Tue 08:18:00 AM 46.8885 17.5595 302° West  Level Estimated
Tue 08:19:00 AM 46.9489 17.4182 302° West  Level Estimated
Tue 08:20:00 AM 47.0091 17.2765 302° West  Level Estimated
Tue 08:21:00 AM 47.0691 17.1346 302° West  Level Estimated
Tue 08:22:00 AM 47.1289 16.9923 302° West  Level Estimated
Tue 08:23:00 AM 47.1886 16.8496 302° West  Level Estimated
Tue 08:24:00 AM 47.2481 16.7067 302° West  Level Estimated
Tue 08:25:00 AM 47.3074 16.5634 301° West  Level Estimated
Tue 08:26:00 AM 47.3665 16.4199 301° West  Level Estimated
Tue 08:27:00 AM 47.4255 16.2760 301° West  Level Estimated
Tue 08:28:00 AM 47.4843 16.1317 301° West  Level Estimated
Tue 08:29:00 AM 47.5429 15.9872 301° West  Level Estimated
Tue 08:30:00 AM 47.6013 15.8423 301° West  Level Estimated
Tue 08:31:00 AM 47.6595 15.6971 301° West  Level Estimated
Tue 08:32:00 AM 47.7175 15.5516 301° West  Level Estimated
Tue 08:33:00 AM 47.7754 15.4058 301° West  Level Estimated
Tue 08:34:00 AM 47.8331 15.2596 300° West  Level Estimated
Tue 08:35:00 AM 47.8905 15.1131 300° West  Level Estimated
Tue 08:36:00 AM 47.9478 14.9663 300° West  Level Estimated
Tue 08:37:00 AM 48.0050 14.8192 300° West  Level Estimated
Tue 08:38:00 AM 48.0619 14.6717 300° West  Level Estimated
Tue 08:39:00 AM 48.1186 14.5239 300° West  Level Estimated
Tue 08:40:00 AM 48.1752 14.3758 300° West  Level Estimated
Tue 08:41:00 AM 48.2315 14.2273 300° West  Level Estimated
Tue 08:42:00 AM 48.2877 14.0786 300° West  Level Estimated
Tue 08:43:00 AM 48.3437 13.9295 299° West  Level Estimated
Tue 08:44:00 AM 48.3994 13.7800 299° West  Level Estimated
Tue 08:45:00 AM 48.4550 13.6303 299° West  Level Estimated
Tue 08:46:00 AM 48.5104 13.4802 299° West  Level Estimated
Tue 08:47:00 AM 48.5656 13.3298 299° West  Level Estimated
Tue 08:48:00 AM 48.6206 13.1791 299° West  Level Estimated
Tue 08:49:00 AM 48.6754 13.0280 299° West  Level Estimated
Tue 08:50:00 AM 48.7300 12.8766 299° West  Level Estimated
Tue 08:51:00 AM 48.7844 12.7249 299° West  Level Estimated
Tue 08:52:00 AM 48.8386 12.5728 298° West  Level Estimated
Tue 08:53:00 AM 48.8926 12.4204 298° West  Level Estimated
Tue 08:54:00 AM 48.9464 12.2677 298° West  Level Estimated
Tue 08:55:00 AM 49.0000 12.1147 298° West  Level Estimated
Tue 08:56:00 AM 49.0534 11.9613 298° West  Level Estimated
Tue 08:57:00 AM 49.1066 11.8076 298° West  Level Estimated
Tue 08:58:00 AM 49.1596 11.6536 298° West  Level Estimated
Tue 08:59:00 AM 49.2124 11.4992 298° West  Level Estimated
Tue 09:00:00 AM 49.2650 11.3446 298° West  Level Estimated
Tue 09:01:00 AM 49.3174 11.1896 297° West  Level Estimated
Tue 09:02:00 AM 49.3695 11.0342 297° West  Level Estimated
Tue 09:03:00 AM 49.4215 10.8785 297° West  Level Estimated
Tue 09:04:00 AM 49.4732 10.7225 297° West  Level Estimated
Tue 09:05:00 AM 49.5248 10.5662 297° West  Level Estimated
Tue 09:06:00 AM 49.5761 10.4095 297° West  Level Estimated
Tue 09:07:00 AM 49.6272 10.2526 297° West  Level Estimated
Tue 09:08:00 AM 49.6781 10.0952 297° West  Level Estimated
Tue 09:09:00 AM 49.7288 9.9376 296° West  Level Estimated
Tue 09:10:00 AM 49.7793 9.7796 296° West  Level Estimated
Tue 09:11:00 AM 49.8295 9.6213 296° West  Level Estimated
Tue 09:12:00 AM 49.8796 9.4627 296° West  Level Estimated
Tue 09:13:00 AM 49.9294 9.3037 296° West  Level Estimated
Tue 09:14:00 AM 49.9790 9.1444 296° West  Level Estimated
Tue 09:15:00 AM 50.0284 8.9848 296° West  Level Estimated
Tue 09:16:00 AM 50.0775 8.8248 296° West  Level Estimated
Tue 09:17:00 AM 50.1265 8.6646 296° West  Level Estimated
Tue 09:18:00 AM 50.1752 8.5040 295° West  Level Estimated
Tue 09:19:00 AM 50.2237 8.3430 295° West  Level Estimated
Tue 09:20:00 AM 50.2720 8.1818 295° West  Level Estimated
Tue 09:21:00 AM 50.3201 8.0202 295° West  Level Estimated
Tue 09:22:00 AM 50.3679 7.8583 295° West  Level Estimated
Tue 09:23:00 AM 50.4155 7.6961 295° West  Level Estimated
Tue 09:24:00 AM 50.4629 7.5335 295° West  Level Estimated
Tue 09:25:00 AM 50.5101 7.3706 295° West  Level Estimated
Tue 09:26:00 AM 50.5570 7.2074 294° West  Level Estimated
Tue 09:27:00 AM 50.6037 7.0439 294° West  Level Estimated
Tue 09:28:00 AM 50.6502 6.8800 294° West  Level Estimated
Tue 09:29:00 AM 50.6964 6.7158 294° West  Level Estimated
Tue 09:30:00 AM 50.7424 6.5513 294° West  Level Estimated
Tue 09:31:00 AM 50.7882 6.3865 294° West  Level Estimated
Tue 09:32:00 AM 50.8337 6.2213 294° West  Level Estimated
Tue 09:33:00 AM 50.8790 6.0559 294° West  Level Estimated
Tue 09:34:00 AM 50.9241 5.8901 293° West  Level Estimated
Tue 09:35:00 AM 50.9690 5.7239 293° West  Level Estimated
Tue 09:36:00 AM 51.0136 5.5575 293° West  Level Estimated
Tue 09:37:00 AM 51.0579 5.3908 293° West  Level Estimated
Tue 09:38:00 AM 51.1021 5.2237 293° West  Level Estimated
Tue 09:39:00 AM 51.1460 5.0563 293° West  Level Estimated
Tue 09:40:00 AM 51.1896 4.8886 293° West  Level Estimated
Tue 09:41:00 AM 51.2330 4.7206 292° West  Level Estimated
Tue 09:42:00 AM 51.2762 4.5522 292° West  Level Estimated
Tue 09:43:00 AM 51.3191 4.3836 292° West  Level Estimated
Tue 09:44:00 AM 51.3618 4.2146 292° West  Level Estimated
Tue 09:45:00 AM 51.4043 4.0453 292° West  Level Estimated
Tue 09:46:00 AM 51.4465 3.8757 292° West  Level Estimated
Tue 09:47:00 AM 51.4884 3.7058 292° West  Level Estimated
Tue 09:48:00 AM 51.5301 3.5355 292° West  Level Estimated
Tue 09:49:00 AM 51.5716 3.3650 291° West  Level Estimated
Tue 09:50:00 AM 51.6128 3.1942 291° West  Level Estimated
Tue 09:51:00 AM 51.6538 3.0230 291° West  Level Estimated
Tue 09:52:00 AM 51.6945 2.8515 291° West  Level Estimated
Tue 09:53:00 AM 51.7350 2.6797 291° West  Level Estimated
Tue 09:54:00 AM 51.7752 2.5077 291° West  Level Estimated
Tue 09:55:00 AM 51.8151 2.3353 291° West  Level Estimated
Tue 09:56:00 AM 51.8549 2.1626 290° West  Level Estimated
Tue 09:57:00 AM 51.8943 1.9896 290° West  Level Estimated
Tue 09:58:00 AM 51.9335 1.8163 290° West  Level Estimated
Tue 09:59:00 AM 51.9725 1.6427 290° West  Level Estimated
Tue 10:00:00 AM 52.0112 1.4688 290° West  Level Estimated
Tue 10:01:00 AM 52.0496 1.2946 290° West  Level Estimated
Tue 10:02:00 AM 52.0878 1.1201 290° West  Level Estimated
Tue 10:03:00 AM 52.1257 0.9453 290° West  Level Estimated
Tue 10:04:00 AM 52.1634 0.7702 289° West  Level Estimated
Tue 10:05:00 AM 52.2008 0.5948 289° West  Level Estimated
Tue 10:06:00 AM 52.2379 0.4191 289° West  Level Estimated
Tue 10:07:00 AM 52.2748 0.2431 289° West  Level Estimated
Tue 10:08:00 AM 52.3114 0.0668 289° West  Level Estimated
Tue 10:09:00 AM 52.3478 -0.1097 289° West  Level Estimated
Tue 10:10:00 AM 52.3839 -0.2866 289° West  Level Estimated
Tue 10:11:00 AM 52.4197 -0.4637 288° West  Level Estimated
Tue 10:12:00 AM 52.4552 -0.6411 288° West  Level Estimated
Tue 10:13:00 AM 52.4906 -0.8189 288° West  Level Estimated
Tue 10:14:00 AM 52.5256 -0.9969 288° West  Level Estimated
Tue 10:15:00 AM 52.5603 -1.1751 288° West  Level Estimated
Tue 10:16:00 AM 52.5948 -1.3537 288° West  Level Estimated
Tue 10:17:00 AM 52.6291 -1.5325 288° West  Level Estimated
Tue 10:18:00 AM 52.6630 -1.7117 287° West  Level Estimated
Tue 10:19:00 AM 52.6967 -1.8911 287° West  Level Estimated
Tue 10:20:00 AM 52.7301 -2.0707 287° West  Level Estimated
Tue 10:21:00 AM 52.7633 -2.2507 287° West  Level Estimated
Tue 10:22:00 AM 52.7961 -2.4309 287° West  Level Estimated
Tue 10:23:00 AM 52.8287 -2.6114 287° West  Level Estimated
Tue 10:24:00 AM 52.8611 -2.7922 287° West  Level Estimated
Tue 10:25:00 AM 52.8931 -2.9732 286° West  Level Estimated
Tue 10:26:00 AM 52.9249 -3.1545 286° West  Level Estimated
Tue 10:27:00 AM 52.9564 -3.3361 286° West  Level Estimated
Tue 10:28:00 AM 52.9876 -3.5179 286° West  Level Estimated
Tue 10:29:00 AM 53.0185 -3.7000 286° West  Level Estimated
Tue 10:30:00 AM 53.0492 -3.8824 286° West  Level Estimated
Tue 10:31:00 AM 53.0796 -4.0650 286° West  Level Estimated
Tue 10:32:00 AM 53.1097 -4.2478 285° West  Level Estimated
Tue 10:33:00 AM 53.1395 -4.4310 285° West  Level Estimated
Tue 10:34:00 AM 53.1690 -4.6143 285° West  Level Estimated
Tue 10:35:00 AM 53.1983 -4.7980 285° West  Level Estimated
Tue 10:36:00 AM 53.2273 -4.9818 285° West  Level Estimated
Tue 10:37:00 AM 53.2560 -5.1660 285° West  Level Estimated
Tue 10:38:00 AM 53.2844 -5.3503 285° West  Level Estimated
Tue 10:39:00 AM 53.3125 -5.5349 284° West  Level Estimated
Tue 10:40:00 AM 53.3404 -5.7198 284° West  Level Estimated
Tue 10:41:00 AM 53.3679 -5.9049 284° West  Level Estimated
Tue 10:42:00 AM 53.3952 -6.0902 284° West  Level Estimated
Tue 10:43:00 AM 53.4213 -6.2701 284° West  Level Estimated
Tue 10:44:00 AM 53.4213 -6.2701 North  Level Estimated
Tue 10:45:00 AM 53.4213 -6.2701 North  Level Estimated
Tue 10:46:00 AM 53.4213 -6.2701 North  Level Estimated
Tue 10:47:00 AM 53.4213 -6.2701 North  Level Estimated
Tue 10:48:00 AM 53.4213 -6.2701 North  Level Estimated
Tue 10:49:00 AM 53.4213 -6.2701 North  Level Estimated
Tue 10:50:00 AM 53.4213 -6.2701 North  Level Estimated
Tue 10:51:00 AM 53.4213 -6.2701 North  Level Estimated
Tue 10:52:00 AM 53.4213 -6.2701 North  Level Estimated
Tue 10:53:00 AM 53.4213 -6.2701 North  Level Estimated
Tue 10:54:00 AM 53.4213 -6.2701 North  Level Estimated
Tue 10:55:00 AM 53.4213 -6.2701 North  Level Estimated
Tue 10:56:00 AM 53.4213 -6.2701 North  Level Estimated
Tue 10:57:00 AM 53.4213 -6.2701 North  Level Estimated
Tue 10:58:00 AM 53.4213 -6.2701 North  Level Estimated
Tue 10:59:00 AM 53.4213 -6.2701 North  Level Estimated

Login

Don't have an account? Register now (free) for customized features, flight alerts, and more!